createdAt,value
2023-04-10T00:01:05.367Z,12.70
2023-04-10T00:03:32.898Z,12.60
2023-04-10T00:05:59.711Z,12.60
2023-04-10T00:08:26.576Z,12.70
2023-04-10T00:10:54.526Z,12.70
2023-04-10T00:13:21.483Z,12.60
2023-04-10T00:15:48.481Z,12.50
2023-04-10T00:18:15.485Z,12.50
2023-04-10T00:20:43.645Z,12.50
2023-04-10T00:23:10.638Z,12.50
2023-04-10T00:25:37.352Z,12.50
2023-04-10T00:28:04.218Z,12.50
2023-04-10T00:30:31.098Z,12.50
2023-04-10T00:32:57.865Z,12.40
2023-04-10T00:35:24.976Z,12.40
2023-04-10T00:37:52.456Z,12.50
2023-04-10T00:40:19.173Z,12.50
2023-04-10T00:42:46.119Z,12.50
2023-04-10T00:45:13.107Z,12.40
2023-04-10T00:47:40.929Z,12.40
2023-04-10T00:50:07.942Z,12.40
2023-04-10T00:52:35.277Z,12.40
2023-04-10T00:55:02.377Z,12.40
2023-04-10T00:57:29.269Z,12.30
2023-04-10T00:59:56.208Z,12.30
2023-04-10T01:02:22.946Z,12.30
2023-04-10T01:05:01.719Z,12.30
2023-04-10T01:07:36.542Z,12.30
2023-04-10T01:10:03.408Z,12.30
2023-04-10T01:12:33.329Z,12.30
2023-04-10T01:15:09.197Z,12.30
2023-04-10T01:18:08.264Z,12.30
2023-04-10T01:20:37.976Z,12.10
2023-04-10T01:23:23.298Z,12.20
2023-04-10T01:26:01.367Z,12.20
2023-04-10T01:28:40.542Z,12.30
2023-04-10T01:31:08.894Z,12.30
2023-04-10T01:33:39.769Z,12.20
2023-04-10T01:36:07.672Z,12.10
2023-04-10T01:38:36.510Z,12.20
2023-04-10T01:41:04.089Z,12.10
2023-04-10T01:43:32.171Z,12.20
2023-04-10T01:46:00.134Z,12.10
2023-04-10T01:48:27.799Z,12.10
2023-04-10T01:50:54.910Z,12.10
2023-04-10T01:53:22.204Z,12.10
2023-04-10T01:55:49.860Z,12.20
2023-04-10T01:58:17.599Z,12.20
2023-04-10T02:00:44.491Z,12.20
2023-04-10T02:03:11.628Z,12.10
2023-04-10T02:05:41.270Z,12.10
2023-04-10T02:08:14.292Z,12.10
2023-04-10T02:10:45.001Z,12.10
2023-04-10T02:13:14.593Z,12.00
2023-04-10T02:15:43.771Z,12.00
2023-04-10T02:18:11.138Z,12.00
2023-04-10T02:20:38.153Z,12.10
2023-04-10T02:23:05.550Z,12.10
2023-04-10T02:25:33.238Z,12.10
2023-04-10T02:28:08.973Z,12.00
2023-04-10T02:30:35.920Z,12.00
2023-04-10T02:33:02.936Z,12.10
2023-04-10T02:35:29.900Z,12.10
2023-04-10T02:37:57.031Z,12.10
2023-04-10T02:40:24.161Z,12.10
2023-04-10T02:42:51.171Z,12.30
2023-04-10T02:45:18.082Z,12.20
2023-04-10T02:47:45.021Z,12.10
2023-04-10T02:50:12.156Z,12.00
2023-04-10T02:52:38.930Z,12.00
2023-04-10T02:55:06.068Z,11.90
2023-04-10T02:57:32.931Z,12.00
2023-04-10T02:59:59.689Z,12.00
2023-04-10T03:02:27.200Z,11.90
2023-04-10T03:04:54.222Z,11.90
2023-04-10T03:07:21.435Z,11.90
2023-04-10T03:09:48.214Z,11.90
2023-04-10T03:12:15.086Z,11.90
2023-04-10T03:14:41.980Z,11.80
2023-04-10T03:17:08.634Z,12.00
2023-04-10T03:19:35.359Z,11.90
2023-04-10T03:22:02.381Z,12.00
2023-04-10T03:24:29.112Z,11.90
2023-04-10T03:26:57.249Z,11.90
2023-04-10T03:29:24.138Z,11.80
2023-04-10T03:31:51.169Z,11.70
2023-04-10T03:34:18.627Z,11.80
2023-04-10T03:36:46.551Z,11.70
2023-04-10T03:39:13.315Z,11.70
2023-04-10T03:41:40.373Z,11.70
2023-04-10T03:44:07.214Z,11.80
2023-04-10T03:46:34.094Z,11.90
2023-04-10T03:49:01.038Z,11.90
2023-04-10T03:51:28.121Z,11.90
2023-04-10T03:53:55.123Z,11.70
2023-04-10T03:56:22.843Z,11.80
2023-04-10T03:58:49.719Z,11.80
2023-04-10T04:01:16.595Z,11.80
2023-04-10T04:03:43.809Z,11.50
2023-04-10T04:06:10.606Z,11.50
2023-04-10T04:08:38.762Z,11.70
2023-04-10T04:11:06.275Z,11.60
2023-04-10T04:13:33.100Z,11.70
2023-04-10T04:15:59.887Z,11.60
2023-04-10T04:18:26.718Z,11.60
2023-04-10T04:20:53.651Z,11.50
2023-04-10T04:23:20.484Z,11.60
2023-04-10T04:25:47.288Z,11.60
2023-04-10T04:28:16.153Z,11.60
2023-04-10T04:30:42.911Z,11.60
2023-04-10T04:33:09.693Z,11.60
2023-04-10T04:35:36.544Z,11.60
2023-04-10T04:38:03.310Z,11.60
2023-04-10T04:40:30.127Z,11.60
2023-04-10T04:42:56.913Z,11.40
2023-04-10T04:45:24.609Z,11.40
2023-04-10T04:47:51.401Z,11.40
2023-04-10T04:50:18.347Z,11.40
2023-04-10T04:52:45.172Z,11.50
2023-04-10T04:55:12.072Z,11.50
2023-04-10T04:57:38.945Z,11.50
2023-04-10T05:00:06.401Z,11.60
2023-04-10T05:02:33.307Z,11.40
2023-04-10T05:05:00.408Z,11.40
2023-04-10T05:07:27.350Z,11.40
2023-04-10T05:09:54.216Z,11.60
2023-04-10T05:12:20.969Z,11.60
2023-04-10T05:14:47.714Z,11.60
2023-04-10T05:17:17.074Z,11.50
2023-04-10T05:19:43.805Z,11.50
2023-04-10T05:22:10.593Z,11.50
2023-04-10T05:24:37.439Z,11.50
2023-04-10T05:27:04.166Z,11.60
2023-04-10T05:29:30.981Z,11.70
2023-04-10T05:31:57.753Z,11.70
2023-04-10T05:34:24.452Z,11.80
2023-04-10T05:36:51.212Z,11.90
2023-04-10T05:39:18.165Z,11.90
2023-04-10T05:41:44.956Z,12.00
2023-04-10T05:44:11.789Z,12.10
2023-04-10T05:46:38.692Z,12.10
2023-04-10T05:49:05.657Z,12.20
2023-04-10T05:51:32.472Z,12.30
2023-04-10T05:53:59.317Z,12.30
2023-04-10T05:56:26.120Z,12.40
2023-04-10T05:58:53.040Z,12.40
2023-04-10T06:01:19.985Z,12.50
2023-04-10T06:03:47.080Z,12.40
2023-04-10T06:06:13.923Z,12.50
2023-04-10T06:08:40.958Z,12.60
2023-04-10T06:11:07.801Z,12.70
2023-04-10T06:13:34.552Z,12.80
2023-04-10T06:16:01.958Z,12.90
2023-04-10T06:18:28.728Z,13.00
2023-04-10T06:20:58.086Z,13.00
2023-04-10T06:23:24.860Z,13.10
2023-04-10T06:25:51.583Z,13.20
2023-04-10T06:28:18.463Z,13.20
2023-04-10T06:30:45.332Z,13.20
2023-04-10T06:33:12.062Z,13.30
2023-04-10T06:35:38.929Z,13.30
2023-04-10T06:38:05.748Z,13.20
2023-04-10T06:40:34.183Z,13.30
2023-04-10T06:43:01.245Z,13.40
2023-04-10T06:45:28.168Z,13.40
2023-04-10T06:47:55.105Z,13.40
2023-04-10T06:50:21.884Z,13.50
2023-04-10T06:52:48.685Z,13.50
2023-04-10T06:55:15.645Z,13.60
2023-04-10T06:57:42.452Z,13.60
2023-04-10T07:00:09.628Z,13.70
2023-04-10T07:02:36.378Z,13.60
2023-04-10T07:05:03.279Z,13.60
2023-04-10T07:07:30.178Z,13.80
2023-04-10T07:09:57.989Z,13.70
2023-04-10T07:12:25.028Z,13.70
2023-04-10T07:14:51.960Z,13.80
2023-04-10T07:17:18.737Z,13.80
2023-04-10T07:19:45.927Z,13.80
2023-04-10T07:22:12.807Z,13.90
2023-04-10T07:24:39.547Z,13.80
2023-04-10T07:27:06.272Z,13.90
2023-04-10T07:29:33.138Z,13.90
2023-04-10T07:32:00.030Z,13.90
2023-04-10T07:34:26.893Z,14.00
2023-04-10T07:36:53.725Z,14.00
2023-04-10T07:39:20.651Z,14.00
2023-04-10T07:41:47.602Z,14.10
2023-04-10T07:44:14.788Z,14.10
2023-04-10T07:46:41.861Z,14.10
2023-04-10T07:49:09.006Z,14.20
2023-04-10T07:51:36.276Z,14.20
2023-04-10T07:54:03.950Z,14.20
2023-04-10T07:56:33.632Z,14.10
2023-04-10T07:59:01.276Z,14.20
2023-04-10T08:01:28.801Z,14.30
2023-04-10T08:03:58.969Z,14.20
2023-04-10T08:06:26.031Z,14.20
2023-04-10T08:08:53.064Z,14.20
2023-04-10T08:11:27.902Z,14.20
2023-04-10T08:13:55.868Z,14.20
2023-04-10T08:16:26.403Z,14.20
2023-04-10T08:18:53.851Z,14.10
2023-04-10T08:21:21.438Z,14.20
2023-04-10T08:23:50.269Z,14.30
2023-04-10T08:26:17.495Z,14.30
2023-04-10T08:28:47.259Z,14.20
2023-04-10T08:31:14.478Z,14.20
2023-04-10T08:33:41.725Z,14.20
2023-04-10T08:36:09.254Z,14.20
2023-04-10T08:38:35.965Z,14.10
2023-04-10T08:41:02.954Z,14.20
2023-04-10T08:43:30.330Z,14.20
2023-04-10T08:45:57.364Z,14.30
2023-04-10T08:48:25.808Z,14.40
2023-04-10T08:50:52.474Z,14.40
2023-04-10T08:53:20.845Z,14.40
2023-04-10T08:55:47.815Z,14.40
2023-04-10T08:58:14.678Z,14.30
2023-04-10T09:00:41.396Z,14.30
2023-04-10T09:03:15.186Z,14.40
2023-04-10T09:05:42.021Z,14.40
2023-04-10T09:08:09.477Z,14.40
2023-04-10T09:10:36.281Z,14.40
2023-04-10T09:13:03.226Z,14.40
2023-04-10T09:15:29.970Z,14.50
2023-04-10T09:17:56.923Z,14.50
2023-04-10T09:20:24.359Z,14.60
2023-04-10T09:22:53.403Z,14.60
2023-04-10T09:25:29.484Z,14.50
2023-04-10T09:28:02.484Z,14.60
2023-04-10T09:30:36.452Z,14.60
2023-04-10T09:33:03.983Z,14.60
2023-04-10T09:35:40.513Z,14.60
2023-04-10T09:38:20.606Z,14.70
2023-04-10T09:40:48.236Z,14.70
2023-04-10T09:43:18.942Z,14.60
2023-04-10T09:45:49.918Z,14.70
2023-04-10T09:48:16.882Z,14.70
2023-04-10T09:50:43.786Z,14.60
2023-04-10T09:53:12.159Z,14.70
2023-04-10T09:55:39.301Z,14.60
2023-04-10T09:58:06.459Z,14.50
2023-04-10T10:00:38.914Z,14.60
2023-04-10T10:03:07.699Z,14.60
2023-04-10T10:05:39.572Z,14.70
2023-04-10T10:08:07.108Z,14.70
2023-04-10T10:10:33.927Z,14.70
2023-04-10T10:13:02.111Z,14.60
2023-04-10T10:15:38.952Z,14.60
2023-04-10T10:18:24.260Z,14.60
2023-04-10T10:20:51.137Z,14.50
2023-04-10T10:23:19.440Z,14.60
2023-04-10T10:25:46.901Z,14.70
2023-04-10T10:28:14.207Z,14.70
2023-04-10T10:30:41.067Z,14.70
2023-04-10T10:33:08.094Z,14.70
2023-04-10T10:35:35.704Z,14.60
2023-04-10T10:38:02.949Z,14.50
2023-04-10T10:40:33.956Z,14.50
2023-04-10T10:43:04.067Z,14.50
2023-04-10T10:45:36.427Z,14.60
2023-04-10T10:48:03.206Z,14.60
2023-04-10T10:50:48.428Z,14.60
2023-04-10T10:53:31.401Z,14.60
2023-04-10T10:55:58.256Z,14.70
2023-04-10T10:58:43.851Z,14.60
2023-04-10T11:01:10.958Z,14.60
2023-04-10T11:03:38.048Z,14.70
2023-04-10T11:06:07.328Z,14.70
2023-04-10T11:08:35.411Z,14.50
2023-04-10T11:11:02.913Z,14.50
2023-04-10T11:13:29.783Z,14.50
2023-04-10T11:15:57.184Z,14.50
2023-04-10T11:18:42.371Z,14.60
2023-04-10T11:21:10.804Z,14.60
2023-04-10T11:23:58.571Z,14.70
2023-04-10T11:26:38.425Z,14.70
2023-04-10T11:29:17.471Z,14.60
2023-04-10T11:31:54.368Z,14.70
2023-04-10T11:34:21.188Z,14.70
2023-04-10T11:36:48.094Z,14.50
2023-04-10T11:39:20.840Z,14.50
2023-04-10T11:41:48.897Z,14.50
2023-04-10T11:44:16.961Z,14.40
2023-04-10T11:46:46.902Z,14.50
2023-04-10T11:49:18.140Z,14.60
2023-04-10T11:51:46.270Z,14.60
2023-04-10T11:54:17.659Z,14.60
2023-04-10T11:56:45.582Z,14.60
2023-04-10T11:59:16.347Z,14.60
2023-04-10T12:01:43.652Z,14.60
2023-04-10T12:04:17.570Z,14.60
2023-04-10T12:06:47.998Z,14.70
2023-04-10T12:09:16.400Z,14.70
2023-04-10T12:12:12.519Z,14.60
2023-04-10T12:14:40.174Z,14.60
2023-04-10T12:17:07.500Z,14.70
2023-04-10T12:19:35.095Z,14.70
2023-04-10T12:22:04.859Z,14.70
2023-04-10T12:24:40.611Z,14.60
2023-04-10T12:27:07.413Z,14.60
2023-04-10T12:29:34.261Z,14.70
2023-04-10T12:32:07.979Z,14.60
2023-04-10T12:34:34.889Z,14.70
2023-04-10T12:37:02.854Z,14.70
2023-04-10T12:39:29.636Z,14.70
2023-04-10T12:42:15.258Z,14.50
2023-04-10T12:44:51.788Z,14.60
2023-04-10T12:47:18.962Z,14.70
2023-04-10T12:50:04.683Z,14.70
2023-04-10T12:52:31.648Z,14.80
2023-04-10T12:55:28.956Z,14.70
2023-04-10T12:57:56.985Z,14.50
2023-04-10T13:00:24.011Z,14.50
2023-04-10T13:02:51.079Z,14.70
2023-04-10T13:05:18.044Z,14.80
2023-04-10T13:07:44.938Z,14.70
2023-04-10T13:10:11.734Z,14.70
2023-04-10T13:12:39.187Z,14.70
2023-04-10T13:15:07.558Z,14.70
2023-04-10T13:17:34.908Z,14.70
2023-04-10T13:20:01.942Z,14.70
2023-04-10T13:22:28.658Z,14.60
2023-04-10T13:24:55.552Z,14.50
2023-04-10T13:27:22.575Z,14.40
2023-04-10T13:29:49.349Z,14.60
2023-04-10T13:32:16.145Z,14.70
2023-04-10T13:34:42.878Z,14.80
2023-04-10T13:37:13.150Z,14.60
2023-04-10T13:39:40.038Z,14.40
2023-04-10T13:42:06.832Z,14.40
2023-04-10T13:44:33.577Z,14.50
2023-04-10T13:47:00.693Z,14.50
2023-04-10T13:49:30.328Z,14.60
2023-04-10T13:51:57.578Z,14.70
2023-04-10T13:54:24.466Z,14.70
2023-04-10T13:56:51.384Z,14.70
2023-04-10T13:59:18.208Z,14.70
2023-04-10T14:01:45.162Z,14.80
2023-04-10T14:04:12.010Z,14.80
2023-04-10T14:06:39.045Z,14.70
2023-04-10T14:09:07.147Z,14.60
2023-04-10T14:11:33.885Z,14.50
2023-04-10T14:14:00.759Z,14.40
2023-04-10T14:16:27.718Z,14.40
2023-04-10T14:18:54.827Z,14.40
2023-04-10T14:21:21.982Z,14.50
2023-04-10T14:23:48.922Z,14.50
2023-04-10T14:26:15.844Z,14.50
2023-04-10T14:28:42.728Z,14.50
2023-04-10T14:31:09.696Z,14.50
2023-04-10T14:33:36.558Z,14.60
2023-04-10T14:36:03.512Z,14.30
2023-04-10T14:38:30.526Z,14.40
2023-04-10T14:40:57.389Z,14.30
2023-04-10T14:43:24.258Z,14.20
2023-04-10T14:45:51.211Z,14.20
2023-04-10T14:48:19.807Z,14.20
2023-04-10T14:50:47.157Z,14.10
2023-04-10T14:53:14.015Z,14.30
2023-04-10T14:55:41.008Z,14.50
2023-04-10T14:58:09.065Z,14.50
2023-04-10T15:00:35.837Z,14.30
2023-04-10T15:03:02.635Z,14.30
2023-04-10T15:05:29.914Z,14.40
2023-04-10T15:07:56.788Z,14.30
2023-04-10T15:10:23.676Z,14.30
2023-04-10T15:12:50.447Z,14.30
2023-04-10T15:15:17.708Z,14.50
2023-04-10T15:17:44.459Z,14.40
2023-04-10T15:20:11.401Z,14.30
2023-04-10T15:22:38.273Z,14.40
2023-04-10T15:25:05.266Z,14.50
2023-04-10T15:27:32.020Z,14.60
2023-04-10T15:29:58.810Z,14.50
2023-04-10T15:32:25.606Z,14.40
2023-04-10T15:34:52.318Z,14.40
2023-04-10T15:37:19.177Z,14.40
2023-04-10T15:39:46.047Z,14.50
2023-04-10T15:42:13.056Z,14.60
2023-04-10T15:44:39.887Z,14.60
2023-04-10T15:47:06.625Z,14.60
2023-04-10T15:49:38.420Z,14.60
2023-04-10T15:52:06.387Z,14.50
2023-04-10T15:54:33.529Z,14.40
2023-04-10T15:57:01.529Z,14.30
2023-04-10T15:59:28.347Z,14.30
2023-04-10T16:01:55.372Z,14.50
2023-04-10T16:04:22.572Z,14.60
2023-04-10T16:06:49.486Z,14.70
2023-04-10T16:09:25.743Z,14.50
2023-04-10T16:11:54.175Z,14.40
2023-04-10T16:14:21.079Z,14.40
2023-04-10T16:16:47.938Z,14.50
2023-04-10T16:19:14.792Z,14.60
2023-04-10T16:21:42.781Z,14.60
2023-04-10T16:24:09.482Z,14.50
2023-04-10T16:26:36.337Z,14.40
2023-04-10T16:29:03.168Z,14.30
2023-04-10T16:31:30.065Z,14.40
2023-04-10T16:33:56.976Z,14.40
2023-04-10T16:36:23.675Z,14.40
2023-04-10T16:38:50.615Z,14.50
2023-04-10T16:41:18.574Z,14.50
2023-04-10T16:43:45.475Z,14.50
2023-04-10T16:46:12.253Z,14.40
2023-04-10T16:48:39.101Z,14.30
2023-04-10T16:51:06.929Z,14.30
2023-04-10T16:53:35.740Z,14.40
2023-04-10T16:56:04.913Z,14.40
2023-04-10T16:58:33.399Z,14.40
2023-04-10T17:01:00.757Z,14.40
2023-04-10T17:03:27.712Z,14.40
2023-04-10T17:05:54.673Z,14.50
2023-04-10T17:08:21.420Z,14.50
2023-04-10T17:10:48.175Z,14.50
2023-04-10T17:13:14.965Z,14.60
2023-04-10T17:15:41.631Z,14.50
2023-04-10T17:18:08.470Z,14.60
2023-04-10T17:20:36.019Z,14.50
2023-04-10T17:23:02.953Z,14.50
2023-04-10T17:25:30.232Z,14.40
2023-04-10T17:27:57.397Z,14.30
2023-04-10T17:30:24.179Z,14.30
2023-04-10T17:32:51.130Z,14.30
2023-04-10T17:35:18.061Z,14.20
2023-04-10T17:37:44.912Z,14.30
2023-04-10T17:40:11.992Z,14.30
2023-04-10T17:42:38.802Z,14.30
2023-04-10T17:45:05.975Z,14.30
2023-04-10T17:47:32.767Z,14.30
2023-04-10T17:49:59.482Z,14.20
2023-04-10T17:52:26.471Z,14.20
2023-04-10T17:54:53.489Z,14.20
2023-04-10T17:57:20.230Z,14.20
2023-04-10T17:59:46.913Z,14.20
2023-04-10T18:02:13.810Z,14.20
2023-04-10T18:04:40.731Z,14.10
2023-04-10T18:07:07.606Z,14.10
2023-04-10T18:09:34.364Z,14.10
2023-04-10T18:12:01.528Z,14.10
2023-04-10T18:14:28.260Z,14.20
2023-04-10T18:16:55.226Z,14.20
2023-04-10T18:19:22.013Z,14.20
2023-04-10T18:21:49.393Z,14.10
2023-04-10T18:24:16.281Z,14.10
2023-04-10T18:26:43.266Z,14.10
2023-04-10T18:29:10.240Z,14.10
2023-04-10T18:31:37.086Z,14.10
2023-04-10T18:34:08.402Z,14.00
2023-04-10T18:36:35.546Z,14.10
2023-04-10T18:39:02.361Z,14.00
2023-04-10T18:41:29.074Z,14.00
2023-04-10T18:44:04.380Z,13.90
2023-04-10T18:46:33.113Z,13.90
2023-04-10T18:49:01.233Z,13.90
2023-04-10T18:51:28.476Z,13.90
2023-04-10T18:53:55.593Z,13.90
2023-04-10T18:56:24.001Z,13.80
2023-04-10T18:58:50.701Z,13.70
2023-04-10T19:01:20.748Z,13.70
2023-04-10T19:03:52.644Z,13.70
2023-04-10T19:06:23.907Z,13.60
2023-04-10T19:08:51.021Z,13.60
2023-04-10T19:11:18.690Z,13.70
2023-04-10T19:13:45.944Z,13.60
2023-04-10T19:16:14.892Z,13.60
2023-04-10T19:18:41.695Z,13.60
2023-04-10T19:21:08.719Z,13.60
2023-04-10T19:23:35.828Z,13.60
2023-04-10T19:26:02.591Z,13.60
2023-04-10T19:28:29.719Z,13.60
2023-04-10T19:30:57.576Z,13.70
2023-04-10T19:33:25.337Z,13.70
2023-04-10T19:35:52.376Z,13.70
2023-04-10T19:38:19.488Z,13.70
2023-04-10T19:40:49.858Z,13.80
2023-04-10T19:43:16.887Z,13.80
2023-04-10T19:45:43.950Z,13.70
2023-04-10T19:48:12.028Z,13.80
2023-04-10T19:50:38.903Z,13.90
2023-04-10T19:53:05.749Z,13.80
2023-04-10T19:55:32.510Z,13.90
2023-04-10T19:57:59.447Z,13.80
2023-04-10T20:00:26.164Z,13.80
2023-04-10T20:02:53.215Z,13.80
2023-04-10T20:05:22.880Z,13.90
2023-04-10T20:07:50.398Z,13.90
2023-04-10T20:10:17.392Z,13.80
2023-04-10T20:12:44.305Z,13.70
2023-04-10T20:15:11.348Z,13.70
2023-04-10T20:17:38.765Z,13.80
2023-04-10T20:20:05.946Z,13.90
2023-04-10T20:22:32.671Z,14.00
2023-04-10T20:24:59.371Z,14.00
2023-04-10T20:27:26.227Z,14.00
2023-04-10T20:29:53.165Z,14.10
2023-04-10T20:32:19.862Z,14.00
2023-04-10T20:34:47.922Z,14.00
2023-04-10T20:37:18.720Z,13.90
2023-04-10T20:39:45.482Z,13.80
2023-04-10T20:42:12.406Z,13.70
2023-04-10T20:44:39.147Z,13.90
2023-04-10T20:47:06.494Z,13.70
2023-04-10T20:49:33.671Z,13.60
2023-04-10T20:52:00.381Z,13.60
2023-04-10T20:54:29.603Z,13.70
2023-04-10T20:57:00.027Z,13.70
2023-04-10T20:59:27.000Z,13.80
2023-04-10T21:01:56.351Z,13.70
2023-04-10T21:04:23.217Z,13.70
2023-04-10T21:06:50.014Z,13.70
2023-04-10T21:09:16.761Z,13.60
2023-04-10T21:11:43.643Z,13.50
2023-04-10T21:14:10.865Z,13.40
2023-04-10T21:16:41.316Z,13.50
2023-04-10T21:19:08.669Z,13.50
2023-04-10T21:21:35.668Z,13.60
2023-04-10T21:24:02.539Z,13.50
2023-04-10T21:26:29.380Z,13.50
2023-04-10T21:28:56.255Z,13.60
2023-04-10T21:31:23.054Z,13.70
2023-04-10T21:33:49.908Z,13.70
2023-04-10T21:36:16.852Z,13.70
2023-04-10T21:38:43.611Z,13.80
2023-04-10T21:41:10.458Z,13.70
2023-04-10T21:43:38.539Z,13.80
2023-04-10T21:46:06.135Z,13.60
2023-04-10T21:48:33.055Z,13.60
2023-04-10T21:50:59.913Z,13.70
2023-04-10T21:53:26.596Z,13.80
2023-04-10T21:55:53.422Z,13.70
2023-04-10T21:58:20.166Z,13.70
2023-04-10T22:00:47.425Z,13.80
2023-04-10T22:03:16.444Z,13.80
2023-04-10T22:05:43.431Z,13.70
2023-04-10T22:08:10.159Z,13.70
2023-04-10T22:10:38.119Z,13.70
2023-04-10T22:13:04.888Z,13.70
2023-04-10T22:15:31.802Z,13.70
2023-04-10T22:17:58.791Z,13.80
2023-04-10T22:20:25.534Z,13.80
2023-04-10T22:22:52.399Z,13.70
2023-04-10T22:25:19.268Z,13.70
2023-04-10T22:27:46.232Z,13.60
2023-04-10T22:30:13.301Z,13.70
2023-04-10T22:32:40.131Z,13.70
2023-04-10T22:35:07.349Z,13.70
2023-04-10T22:37:34.194Z,13.70
2023-04-10T22:40:01.034Z,13.60
2023-04-10T22:42:28.838Z,13.50
2023-04-10T22:44:57.385Z,13.40
2023-04-10T22:47:24.161Z,13.50
2023-04-10T22:49:50.936Z,13.40
2023-04-10T22:52:17.606Z,13.40
2023-04-10T22:54:44.350Z,13.50
2023-04-10T22:57:11.256Z,13.70
2023-04-10T22:59:38.093Z,13.70
2023-04-10T23:02:05.085Z,13.70
2023-04-10T23:04:32.162Z,13.70
2023-04-10T23:06:58.986Z,13.60
2023-04-10T23:09:26.005Z,13.70
2023-04-10T23:11:52.770Z,13.60
2023-04-10T23:14:19.848Z,13.70
2023-04-10T23:16:46.901Z,13.70
2023-04-10T23:19:13.826Z,13.70
2023-04-10T23:21:40.667Z,13.70
2023-04-10T23:24:07.492Z,13.60
2023-04-10T23:26:34.223Z,13.60
2023-04-10T23:29:01.212Z,13.70
2023-04-10T23:31:28.185Z,13.70
2023-04-10T23:33:55.052Z,13.70
2023-04-10T23:36:21.839Z,13.60
2023-04-10T23:38:48.616Z,13.70
2023-04-10T23:41:15.371Z,13.60
2023-04-10T23:43:42.140Z,13.60
2023-04-10T23:46:08.892Z,13.50
2023-04-10T23:48:35.694Z,13.50
2023-04-10T23:51:03.373Z,13.40
2023-04-10T23:53:30.248Z,13.30
2023-04-10T23:55:56.966Z,13.30
2023-04-10T23:58:23.674Z,13.30
